sensor_id;sensor_type;location;lat;lon;timestamp;temperature;humidity
12901;DHT22;6518;50.930;5.344;2022-08-07T00:00:55;17.70;59.10
12901;DHT22;6518;50.930;5.344;2022-08-07T00:03:22;17.70;59.30
12901;DHT22;6518;50.930;5.344;2022-08-07T00:05:51;17.70;59.40
12901;DHT22;6518;50.930;5.344;2022-08-07T00:08:18;17.60;59.50
12901;DHT22;6518;50.930;5.344;2022-08-07T00:10:47;17.60;59.70
12901;DHT22;6518;50.930;5.344;2022-08-07T00:13:15;17.60;59.80
12901;DHT22;6518;50.930;5.344;2022-08-07T00:15:44;17.50;59.80
12901;DHT22;6518;50.930;5.344;2022-08-07T00:18:11;17.50;59.90
12901;DHT22;6518;50.930;5.344;2022-08-07T00:20:38;17.50;60.20
12901;DHT22;6518;50.930;5.344;2022-08-07T00:23:05;17.40;60.20
12901;DHT22;6518;50.930;5.344;2022-08-07T00:25:33;17.50;60.30
12901;DHT22;6518;50.930;5.344;2022-08-07T00:28:00;17.40;60.40
12901;DHT22;6518;50.930;5.344;2022-08-07T00:30:27;17.50;60.60
12901;DHT22;6518;50.930;5.344;2022-08-07T00:32:57;17.50;60.60
12901;DHT22;6518;50.930;5.344;2022-08-07T00:35:25;17.50;60.70
12901;DHT22;6518;50.930;5.344;2022-08-07T00:37:52;17.40;60.70
12901;DHT22;6518;50.930;5.344;2022-08-07T00:40:19;17.30;60.90
12901;DHT22;6518;50.930;5.344;2022-08-07T00:42:47;17.30;61.10
12901;DHT22;6518;50.930;5.344;2022-08-07T00:45:14;17.20;61.20
12901;DHT22;6518;50.930;5.344;2022-08-07T00:47:41;17.10;61.40
12901;DHT22;6518;50.930;5.344;2022-08-07T00:50:09;17.10;61.70
12901;DHT22;6518;50.930;5.344;2022-08-07T00:52:36;17.10;61.80
12901;DHT22;6518;50.930;5.344;2022-08-07T00:55:04;17.10;61.80
12901;DHT22;6518;50.930;5.344;2022-08-07T00:57:31;17.10;61.90
12901;DHT22;6518;50.930;5.344;2022-08-07T00:59:58;17.10;62.10
12901;DHT22;6518;50.930;5.344;2022-08-07T01:02:26;17.10;62.10
12901;DHT22;6518;50.930;5.344;2022-08-07T01:04:52;17.10;62.00
12901;DHT22;6518;50.930;5.344;2022-08-07T01:07:21;17.10;61.90
12901;DHT22;6518;50.930;5.344;2022-08-07T01:09:48;17.10;62.00
12901;DHT22;6518;50.930;5.344;2022-08-07T01:12:16;17.10;62.10
12901;DHT22;6518;50.930;5.344;2022-08-07T01:14:43;17.10;62.10
12901;DHT22;6518;50.930;5.344;2022-08-07T01:17:10;17.10;62.30
12901;DHT22;6518;50.930;5.344;2022-08-07T01:19:38;17.10;62.20
12901;DHT22;6518;50.930;5.344;2022-08-07T01:22:08;17.10;62.00
12901;DHT22;6518;50.930;5.344;2022-08-07T01:24:35;17.10;62.00
12901;DHT22;6518;50.930;5.344;2022-08-07T01:27:03;17.00;62.20
12901;DHT22;6518;50.930;5.344;2022-08-07T01:29:30;16.90;62.40
12901;DHT22;6518;50.930;5.344;2022-08-07T01:31:59;16.90;62.60
12901;DHT22;6518;50.930;5.344;2022-08-07T01:34:29;16.90;62.60
12901;DHT22;6518;50.930;5.344;2022-08-07T01:36:56;16.90;62.90
12901;DHT22;6518;50.930;5.344;2022-08-07T01:39:25;16.90;62.90
12901;DHT22;6518;50.930;5.344;2022-08-07T01:41:53;16.90;62.90
12901;DHT22;6518;50.930;5.344;2022-08-07T01:44:21;16.90;63.10
12901;DHT22;6518;50.930;5.344;2022-08-07T01:46:48;16.90;63.10
12901;DHT22;6518;50.930;5.344;2022-08-07T01:49:14;16.90;63.10
12901;DHT22;6518;50.930;5.344;2022-08-07T01:51:42;16.90;63.00
12901;DHT22;6518;50.930;5.344;2022-08-07T01:54:13;16.80;63.00
12901;DHT22;6518;50.930;5.344;2022-08-07T01:56:51;16.70;63.20
12901;DHT22;6518;50.930;5.344;2022-08-07T01:59:25;16.60;63.50
12901;DHT22;6518;50.930;5.344;2022-08-07T02:01:57;16.50;63.60
12901;DHT22;6518;50.930;5.344;2022-08-07T02:04:29;16.50;63.90
12901;DHT22;6518;50.930;5.344;2022-08-07T02:06:58;16.40;64.00
12901;DHT22;6518;50.930;5.344;2022-08-07T02:09:28;16.40;64.20
12901;DHT22;6518;50.930;5.344;2022-08-07T02:11:57;16.50;64.30
12901;DHT22;6518;50.930;5.344;2022-08-07T02:14:42;16.50;64.40
12901;DHT22;6518;50.930;5.344;2022-08-07T02:17:12;16.40;64.30
12901;DHT22;6518;50.930;5.344;2022-08-07T02:19:42;16.40;64.30
12901;DHT22;6518;50.930;5.344;2022-08-07T02:22:11;16.30;64.50
12901;DHT22;6518;50.930;5.344;2022-08-07T02:24:40;16.40;64.60
12901;DHT22;6518;50.930;5.344;2022-08-07T02:27:10;16.30;64.60
12901;DHT22;6518;50.930;5.344;2022-08-07T02:29:38;16.30;64.60
12901;DHT22;6518;50.930;5.344;2022-08-07T02:32:07;16.20;64.70
12901;DHT22;6518;50.930;5.344;2022-08-07T02:34:36;16.10;65.00
12901;DHT22;6518;50.930;5.344;2022-08-07T02:37:04;16.10;65.20
12901;DHT22;6518;50.930;5.344;2022-08-07T02:39:34;16.20;65.30
12901;DHT22;6518;50.930;5.344;2022-08-07T02:42:02;16.20;65.20
12901;DHT22;6518;50.930;5.344;2022-08-07T02:44:31;16.10;65.10
12901;DHT22;6518;50.930;5.344;2022-08-07T02:46:59;16.10;65.30
12901;DHT22;6518;50.930;5.344;2022-08-07T02:49:27;16.10;65.60
12901;DHT22;6518;50.930;5.344;2022-08-07T02:51:56;16.00;65.60
12901;DHT22;6518;50.930;5.344;2022-08-07T02:54:26;16.00;65.70
12901;DHT22;6518;50.930;5.344;2022-08-07T02:56:55;15.90;65.70
12901;DHT22;6518;50.930;5.344;2022-08-07T02:59:26;15.90;65.80
12901;DHT22;6518;50.930;5.344;2022-08-07T03:01:56;15.90;66.00
12901;DHT22;6518;50.930;5.344;2022-08-07T03:04:23;15.90;66.10
12901;DHT22;6518;50.930;5.344;2022-08-07T03:06:51;15.90;66.20
12901;DHT22;6518;50.930;5.344;2022-08-07T03:09:20;15.90;66.40
12901;DHT22;6518;50.930;5.344;2022-08-07T03:11:47;15.90;66.50
12901;DHT22;6518;50.930;5.344;2022-08-07T03:14:16;15.90;66.40
12901;DHT22;6518;50.930;5.344;2022-08-07T03:16:43;15.90;66.30
12901;DHT22;6518;50.930;5.344;2022-08-07T03:19:12;15.80;66.40
12901;DHT22;6518;50.930;5.344;2022-08-07T03:21:38;15.80;66.60
12901;DHT22;6518;50.930;5.344;2022-08-07T03:24:06;15.70;66.60
12901;DHT22;6518;50.930;5.344;2022-08-07T03:26:34;15.70;66.80
12901;DHT22;6518;50.930;5.344;2022-08-07T03:29:03;15.60;67.00
12901;DHT22;6518;50.930;5.344;2022-08-07T03:31:31;15.60;67.10
12901;DHT22;6518;50.930;5.344;2022-08-07T03:34:00;15.60;67.30
12901;DHT22;6518;50.930;5.344;2022-08-07T03:36:31;15.60;67.40
12901;DHT22;6518;50.930;5.344;2022-08-07T03:39:03;15.60;68.40
12901;DHT22;6518;50.930;5.344;2022-08-07T03:41:30;15.60;67.60
12901;DHT22;6518;50.930;5.344;2022-08-07T03:43:58;15.70;67.60
12901;DHT22;6518;50.930;5.344;2022-08-07T03:46:26;15.70;67.60
12901;DHT22;6518;50.930;5.344;2022-08-07T03:48:54;15.70;67.70
12901;DHT22;6518;50.930;5.344;2022-08-07T03:51:22;15.70;68.60
12901;DHT22;6518;50.930;5.344;2022-08-07T03:53:50;15.80;67.80
12901;DHT22;6518;50.930;5.344;2022-08-07T03:56:19;15.80;67.70
12901;DHT22;6518;50.930;5.344;2022-08-07T03:58:47;15.80;67.60
12901;DHT22;6518;50.930;5.344;2022-08-07T04:01:15;15.80;67.20
12901;DHT22;6518;50.930;5.344;2022-08-07T04:03:43;15.80;67.30
12901;DHT22;6518;50.930;5.344;2022-08-07T04:06:10;15.70;67.40
12901;DHT22;6518;50.930;5.344;2022-08-07T04:08:39;15.70;67.60
12901;DHT22;6518;50.930;5.344;2022-08-07T04:11:09;15.60;67.70
12901;DHT22;6518;50.930;5.344;2022-08-07T04:13:37;15.60;67.70
12901;DHT22;6518;50.930;5.344;2022-08-07T04:16:05;15.50;67.70
12901;DHT22;6518;50.930;5.344;2022-08-07T04:18:32;15.50;68.00
12901;DHT22;6518;50.930;5.344;2022-08-07T04:20:59;15.40;68.00
12901;DHT22;6518;50.930;5.344;2022-08-07T04:23:26;15.30;68.10
12901;DHT22;6518;50.930;5.344;2022-08-07T04:25:53;15.30;68.30
12901;DHT22;6518;50.930;5.344;2022-08-07T04:28:22;15.30;68.60
12901;DHT22;6518;50.930;5.344;2022-08-07T04:30:50;15.30;68.70
12901;DHT22;6518;50.930;5.344;2022-08-07T04:33:17;15.30;68.80
12901;DHT22;6518;50.930;5.344;2022-08-07T04:35:44;15.30;68.90
12901;DHT22;6518;50.930;5.344;2022-08-07T04:38:12;15.30;69.00
12901;DHT22;6518;50.930;5.344;2022-08-07T04:40:41;15.30;68.90
12901;DHT22;6518;50.930;5.344;2022-08-07T04:43:09;15.40;68.90
12901;DHT22;6518;50.930;5.344;2022-08-07T04:45:45;15.40;68.80
12901;DHT22;6518;50.930;5.344;2022-08-07T04:48:23;15.50;68.80
12901;DHT22;6518;50.930;5.344;2022-08-07T04:50:58;15.50;68.70
12901;DHT22;6518;50.930;5.344;2022-08-07T04:53:33;15.50;68.70
12901;DHT22;6518;50.930;5.344;2022-08-07T04:56:09;15.50;68.60
12901;DHT22;6518;50.930;5.344;2022-08-07T04:58:47;15.40;68.60
12901;DHT22;6518;50.930;5.344;2022-08-07T05:01:23;15.40;68.70
12901;DHT22;6518;50.930;5.344;2022-08-07T05:04:00;15.40;68.80
12901;DHT22;6518;50.930;5.344;2022-08-07T05:06:34;15.30;68.90
12901;DHT22;6518;50.930;5.344;2022-08-07T05:09:03;15.30;69.10
12901;DHT22;6518;50.930;5.344;2022-08-07T05:11:37;15.30;69.10
12901;DHT22;6518;50.930;5.344;2022-08-07T05:14:10;15.30;69.20
12901;DHT22;6518;50.930;5.344;2022-08-07T05:16:40;15.30;69.40
12901;DHT22;6518;50.930;5.344;2022-08-07T05:19:14;15.30;69.40
12901;DHT22;6518;50.930;5.344;2022-08-07T05:21:46;15.30;69.50
12901;DHT22;6518;50.930;5.344;2022-08-07T05:24:15;15.30;69.60
12901;DHT22;6518;50.930;5.344;2022-08-07T05:26:43;15.30;69.60
12901;DHT22;6518;50.930;5.344;2022-08-07T05:29:13;15.30;69.70
12901;DHT22;6518;50.930;5.344;2022-08-07T05:31:43;15.30;69.70
12901;DHT22;6518;50.930;5.344;2022-08-07T05:34:13;15.20;69.70
12901;DHT22;6518;50.930;5.344;2022-08-07T05:36:42;15.20;69.80
12901;DHT22;6518;50.930;5.344;2022-08-07T05:39:10;15.20;70.00
12901;DHT22;6518;50.930;5.344;2022-08-07T05:41:37;15.20;70.10
12901;DHT22;6518;50.930;5.344;2022-08-07T05:44:06;15.20;70.00
12901;DHT22;6518;50.930;5.344;2022-08-07T05:46:34;15.30;70.10
12901;DHT22;6518;50.930;5.344;2022-08-07T05:49:04;15.30;70.10
12901;DHT22;6518;50.930;5.344;2022-08-07T05:51:32;15.30;70.10
12901;DHT22;6518;50.930;5.344;2022-08-07T05:53:59;15.40;70.30
12901;DHT22;6518;50.930;5.344;2022-08-07T05:56:27;15.50;70.10
12901;DHT22;6518;50.930;5.344;2022-08-07T05:58:55;15.50;70.00
12901;DHT22;6518;50.930;5.344;2022-08-07T06:01:24;15.50;70.00
12901;DHT22;6518;50.930;5.344;2022-08-07T06:03:53;15.60;70.10
12901;DHT22;6518;50.930;5.344;2022-08-07T06:06:22;15.60;70.10
12901;DHT22;6518;50.930;5.344;2022-08-07T06:08:50;15.70;70.10
12901;DHT22;6518;50.930;5.344;2022-08-07T06:11:18;15.70;69.80
12901;DHT22;6518;50.930;5.344;2022-08-07T06:13:45;15.80;70.80
12901;DHT22;6518;50.930;5.344;2022-08-07T06:16:14;15.80;69.60
12901;DHT22;6518;50.930;5.344;2022-08-07T06:18:42;15.80;69.60
12901;DHT22;6518;50.930;5.344;2022-08-07T06:21:10;15.90;69.60
12901;DHT22;6518;50.930;5.344;2022-08-07T06:23:39;15.90;69.60
12901;DHT22;6518;50.930;5.344;2022-08-07T06:26:06;16.00;69.50
12901;DHT22;6518;50.930;5.344;2022-08-07T06:28:47;16.00;69.50
12901;DHT22;6518;50.930;5.344;2022-08-07T06:31:14;16.10;69.40
12901;DHT22;6518;50.930;5.344;2022-08-07T06:33:41;16.10;69.40
12901;DHT22;6518;50.930;5.344;2022-08-07T06:36:09;16.20;69.40
12901;DHT22;6518;50.930;5.344;2022-08-07T06:38:36;16.20;69.30
12901;DHT22;6518;50.930;5.344;2022-08-07T06:41:11;16.30;69.30
12901;DHT22;6518;50.930;5.344;2022-08-07T06:43:39;16.30;69.20
12901;DHT22;6518;50.930;5.344;2022-08-07T06:46:07;16.40;69.30
12901;DHT22;6518;50.930;5.344;2022-08-07T06:48:35;16.50;69.10
12901;DHT22;6518;50.930;5.344;2022-08-07T06:51:06;16.50;69.10
12901;DHT22;6518;50.930;5.344;2022-08-07T06:53:35;16.50;68.90
12901;DHT22;6518;50.930;5.344;2022-08-07T06:56:05;16.60;69.00
12901;DHT22;6518;50.930;5.344;2022-08-07T06:58:34;16.60;69.00
12901;DHT22;6518;50.930;5.344;2022-08-07T07:01:03;16.60;68.90
12901;DHT22;6518;50.930;5.344;2022-08-07T07:03:32;16.70;68.90
12901;DHT22;6518;50.930;5.344;2022-08-07T07:05:59;16.80;69.80
12901;DHT22;6518;50.930;5.344;2022-08-07T07:08:27;16.80;68.80
12901;DHT22;6518;50.930;5.344;2022-08-07T07:10:54;16.90;68.70
12901;DHT22;6518;50.930;5.344;2022-08-07T07:13:27;16.90;68.60
12901;DHT22;6518;50.930;5.344;2022-08-07T07:15:59;17.00;68.70
12901;DHT22;6518;50.930;5.344;2022-08-07T07:18:35;17.00;68.50
12901;DHT22;6518;50.930;5.344;2022-08-07T07:21:07;17.10;68.40
12901;DHT22;6518;50.930;5.344;2022-08-07T07:23:36;17.10;68.30
12901;DHT22;6518;50.930;5.344;2022-08-07T07:26:05;17.20;68.30
12901;DHT22;6518;50.930;5.344;2022-08-07T07:28:37;17.30;68.10
12901;DHT22;6518;50.930;5.344;2022-08-07T07:31:09;17.40;67.90
12901;DHT22;6518;50.930;5.344;2022-08-07T07:33:38;17.40;67.80
12901;DHT22;6518;50.930;5.344;2022-08-07T07:36:07;17.50;67.80
12901;DHT22;6518;50.930;5.344;2022-08-07T07:38:35;17.50;67.50
12901;DHT22;6518;50.930;5.344;2022-08-07T07:41:05;17.60;67.40
12901;DHT22;6518;50.930;5.344;2022-08-07T07:43:35;17.70;67.20
12901;DHT22;6518;50.930;5.344;2022-08-07T07:46:03;17.80;67.00
12901;DHT22;6518;50.930;5.344;2022-08-07T07:48:31;17.80;66.90
12901;DHT22;6518;50.930;5.344;2022-08-07T07:50:59;17.80;66.70
12901;DHT22;6518;50.930;5.344;2022-08-07T07:53:27;17.90;66.70
12901;DHT22;6518;50.930;5.344;2022-08-07T07:55:57;18.00;66.60
12901;DHT22;6518;50.930;5.344;2022-08-07T07:58:25;17.80;66.30
12901;DHT22;6518;50.930;5.344;2022-08-07T08:00:56;18.00;66.30
12901;DHT22;6518;50.930;5.344;2022-08-07T08:03:24;18.10;66.20
12901;DHT22;6518;50.930;5.344;2022-08-07T08:05:52;18.20;66.10
12901;DHT22;6518;50.930;5.344;2022-08-07T08:08:20;18.20;66.10
12901;DHT22;6518;50.930;5.344;2022-08-07T08:10:47;18.30;65.90
12901;DHT22;6518;50.930;5.344;2022-08-07T08:13:14;18.40;65.60
12901;DHT22;6518;50.930;5.344;2022-08-07T08:15:43;18.50;65.80
12901;DHT22;6518;50.930;5.344;2022-08-07T08:18:13;18.60;65.50
12901;DHT22;6518;50.930;5.344;2022-08-07T08:20:42;18.60;65.20
12901;DHT22;6518;50.930;5.344;2022-08-07T08:23:09;18.70;65.30
12901;DHT22;6518;50.930;5.344;2022-08-07T08:25:55;18.80;65.00
12901;DHT22;6518;50.930;5.344;2022-08-07T08:28:43;18.80;64.70
12901;DHT22;6518;50.930;5.344;2022-08-07T08:31:19;18.90;64.10
12901;DHT22;6518;50.930;5.344;2022-08-07T08:33:50;18.90;63.80
12901;DHT22;6518;50.930;5.344;2022-08-07T08:36:20;19.00;63.70
12901;DHT22;6518;50.930;5.344;2022-08-07T08:38:49;19.10;63.60
12901;DHT22;6518;50.930;5.344;2022-08-07T08:41:20;19.10;63.40
12901;DHT22;6518;50.930;5.344;2022-08-07T08:43:56;19.20;63.20
12901;DHT22;6518;50.930;5.344;2022-08-07T08:46:35;19.30;62.70
12901;DHT22;6518;50.930;5.344;2022-08-07T08:49:12;19.30;62.30
12901;DHT22;6518;50.930;5.344;2022-08-07T08:51:51;19.40;62.30
12901;DHT22;6518;50.930;5.344;2022-08-07T08:54:25;19.50;62.10
12901;DHT22;6518;50.930;5.344;2022-08-07T08:56:56;19.60;61.90
12901;DHT22;6518;50.930;5.344;2022-08-07T08:59:28;19.60;61.40
12901;DHT22;6518;50.930;5.344;2022-08-07T09:02:05;19.70;60.90
12901;DHT22;6518;50.930;5.344;2022-08-07T09:04:42;19.70;60.20
12901;DHT22;6518;50.930;5.344;2022-08-07T09:07:15;19.80;59.90
12901;DHT22;6518;50.930;5.344;2022-08-07T09:09:54;19.80;59.60
12901;DHT22;6518;50.930;5.344;2022-08-07T09:12:32;19.90;59.40
12901;DHT22;6518;50.930;5.344;2022-08-07T09:15:11;20.00;59.30
12901;DHT22;6518;50.930;5.344;2022-08-07T09:17:47;20.00;59.00
12901;DHT22;6518;50.930;5.344;2022-08-07T09:20:28;20.20;58.80
12901;DHT22;6518;50.930;5.344;2022-08-07T09:23:03;20.30;58.10
12901;DHT22;6518;50.930;5.344;2022-08-07T09:25:38;20.30;57.90
12901;DHT22;6518;50.930;5.344;2022-08-07T09:28:11;20.40;57.50
12901;DHT22;6518;50.930;5.344;2022-08-07T09:30:53;20.40;57.50
12901;DHT22;6518;50.930;5.344;2022-08-07T09:33:39;20.50;57.30
12901;DHT22;6518;50.930;5.344;2022-08-07T09:36:18;20.50;57.20
12901;DHT22;6518;50.930;5.344;2022-08-07T09:38:53;20.60;56.30
12901;DHT22;6518;50.930;5.344;2022-08-07T09:41:33;20.70;56.00
12901;DHT22;6518;50.930;5.344;2022-08-07T09:44:05;20.80;55.50
12901;DHT22;6518;50.930;5.344;2022-08-07T09:46:56;20.90;54.90
12901;DHT22;6518;50.930;5.344;2022-08-07T09:49:41;20.90;54.20
12901;DHT22;6518;50.930;5.344;2022-08-07T09:52:18;21.00;54.00
12901;DHT22;6518;50.930;5.344;2022-08-07T09:54:55;21.00;53.60
12901;DHT22;6518;50.930;5.344;2022-08-07T10:00:31;21.10;52.50
12901;DHT22;6518;50.930;5.344;2022-08-07T10:03:23;21.20;53.00
12901;DHT22;6518;50.930;5.344;2022-08-07T10:09:17;21.20;52.70
12901;DHT22;6518;50.930;5.344;2022-08-07T10:12:03;21.30;52.70
12901;DHT22;6518;50.930;5.344;2022-08-07T10:14:49;21.30;52.50
12901;DHT22;6518;50.930;5.344;2022-08-07T10:17:39;21.30;52.40
12901;DHT22;6518;50.930;5.344;2022-08-07T10:20:20;21.40;51.70
12901;DHT22;6518;50.930;5.344;2022-08-07T10:23:08;21.50;51.60
12901;DHT22;6518;50.930;5.344;2022-08-07T10:25:53;21.50;51.30
12901;DHT22;6518;50.930;5.344;2022-08-07T10:28:40;21.60;51.40
12901;DHT22;6518;50.930;5.344;2022-08-07T10:31:32;21.60;51.40
12901;DHT22;6518;50.930;5.344;2022-08-07T10:34:13;21.70;51.10
12901;DHT22;6518;50.930;5.344;2022-08-07T10:36:55;21.80;51.20
12901;DHT22;6518;50.930;5.344;2022-08-07T10:39:36;21.80;50.70
12901;DHT22;6518;50.930;5.344;2022-08-07T10:42:14;21.80;50.70
12901;DHT22;6518;50.930;5.344;2022-08-07T10:44:50;21.70;50.70
12901;DHT22;6518;50.930;5.344;2022-08-07T10:47:22;21.80;50.90
12901;DHT22;6518;50.930;5.344;2022-08-07T10:50:02;21.90;50.50
12901;DHT22;6518;50.930;5.344;2022-08-07T10:52:33;21.90;50.00
12901;DHT22;6518;50.930;5.344;2022-08-07T10:55:11;21.90;50.30
12901;DHT22;6518;50.930;5.344;2022-08-07T10:57:50;22.00;50.20
12901;DHT22;6518;50.930;5.344;2022-08-07T11:00:18;22.00;50.00
12901;DHT22;6518;50.930;5.344;2022-08-07T11:02:54;22.10;49.80
12901;DHT22;6518;50.930;5.344;2022-08-07T11:05:30;22.10;49.60
12901;DHT22;6518;50.930;5.344;2022-08-07T11:08:04;22.10;49.40
12901;DHT22;6518;50.930;5.344;2022-08-07T11:10:39;22.10;49.60
12901;DHT22;6518;50.930;5.344;2022-08-07T11:13:13;22.10;49.60
12901;DHT22;6518;50.930;5.344;2022-08-07T11:15:44;22.20;49.20
12901;DHT22;6518;50.930;5.344;2022-08-07T11:18:16;22.20;49.20
12901;DHT22;6518;50.930;5.344;2022-08-07T11:20:50;22.30;48.90
12901;DHT22;6518;50.930;5.344;2022-08-07T11:23:23;22.30;48.70
12901;DHT22;6518;50.930;5.344;2022-08-07T11:28:42;22.20;48.40
12901;DHT22;6518;50.930;5.344;2022-08-07T11:31:21;22.30;48.50
12901;DHT22;6518;50.930;5.344;2022-08-07T11:33:53;22.30;48.40
12901;DHT22;6518;50.930;5.344;2022-08-07T11:36:46;22.30;48.40
12901;DHT22;6518;50.930;5.344;2022-08-07T11:39:28;22.40;48.20
12901;DHT22;6518;50.930;5.344;2022-08-07T11:41:59;22.40;48.20
12901;DHT22;6518;50.930;5.344;2022-08-07T11:44:38;22.40;48.40
12901;DHT22;6518;50.930;5.344;2022-08-07T11:47:26;22.50;48.20
12901;DHT22;6518;50.930;5.344;2022-08-07T11:50:02;22.50;47.80
12901;DHT22;6518;50.930;5.344;2022-08-07T11:52:44;22.50;47.90
12901;DHT22;6518;50.930;5.344;2022-08-07T11:55:25;22.50;47.90
12901;DHT22;6518;50.930;5.344;2022-08-07T11:58:03;22.50;48.30
12901;DHT22;6518;50.930;5.344;2022-08-07T12:00:39;22.60;48.00
12901;DHT22;6518;50.930;5.344;2022-08-07T12:03:37;22.70;47.70
12901;DHT22;6518;50.930;5.344;2022-08-07T12:06:24;22.70;47.30
12901;DHT22;6518;50.930;5.344;2022-08-07T12:09:02;22.70;47.40
12901;DHT22;6518;50.930;5.344;2022-08-07T12:11:36;22.70;47.40
12901;DHT22;6518;50.930;5.344;2022-08-07T12:14:09;22.70;47.10
12901;DHT22;6518;50.930;5.344;2022-08-07T12:16:45;22.70;47.30
12901;DHT22;6518;50.930;5.344;2022-08-07T12:19:18;22.80;47.20
12901;DHT22;6518;50.930;5.344;2022-08-07T12:21:54;22.80;47.10
12901;DHT22;6518;50.930;5.344;2022-08-07T12:24:30;22.80;47.10
12901;DHT22;6518;50.930;5.344;2022-08-07T12:27:03;22.80;47.10
12901;DHT22;6518;50.930;5.344;2022-08-07T12:29:37;22.80;46.80
12901;DHT22;6518;50.930;5.344;2022-08-07T12:32:14;22.90;46.70
12901;DHT22;6518;50.930;5.344;2022-08-07T12:34:44;22.90;46.60
12901;DHT22;6518;50.930;5.344;2022-08-07T12:37:12;22.90;46.60
12901;DHT22;6518;50.930;5.344;2022-08-07T12:39:43;22.90;46.30
12901;DHT22;6518;50.930;5.344;2022-08-07T12:42:11;22.90;46.00
12901;DHT22;6518;50.930;5.344;2022-08-07T12:44:40;22.90;46.30
12901;DHT22;6518;50.930;5.344;2022-08-07T12:47:20;23.00;46.20
12901;DHT22;6518;50.930;5.344;2022-08-07T12:49:55;22.90;45.80
12901;DHT22;6518;50.930;5.344;2022-08-07T12:52:31;23.00;45.70
12901;DHT22;6518;50.930;5.344;2022-08-07T12:55:03;23.00;45.80
12901;DHT22;6518;50.930;5.344;2022-08-07T12:57:36;23.10;45.90
12901;DHT22;6518;50.930;5.344;2022-08-07T13:00:05;23.10;45.70
12901;DHT22;6518;50.930;5.344;2022-08-07T13:05:54;23.10;45.10
12901;DHT22;6518;50.930;5.344;2022-08-07T13:08:41;23.20;45.80
12901;DHT22;6518;50.930;5.344;2022-08-07T13:11:23;23.20;45.20
12901;DHT22;6518;50.930;5.344;2022-08-07T13:14:02;23.20;45.20
12901;DHT22;6518;50.930;5.344;2022-08-07T13:16:39;23.30;45.50
12901;DHT22;6518;50.930;5.344;2022-08-07T13:19:22;23.30;45.60
12901;DHT22;6518;50.930;5.344;2022-08-07T13:21:55;23.40;45.70
12901;DHT22;6518;50.930;5.344;2022-08-07T13:24:25;23.40;45.80
12901;DHT22;6518;50.930;5.344;2022-08-07T13:27:03;23.50;45.90
12901;DHT22;6518;50.930;5.344;2022-08-07T13:29:37;23.60;45.60
12901;DHT22;6518;50.930;5.344;2022-08-07T13:32:13;23.60;45.30
12901;DHT22;6518;50.930;5.344;2022-08-07T13:34:47;23.70;44.80
12901;DHT22;6518;50.930;5.344;2022-08-07T13:37:23;23.70;44.50
12901;DHT22;6518;50.930;5.344;2022-08-07T13:40:02;23.70;44.30
12901;DHT22;6518;50.930;5.344;2022-08-07T13:42:32;23.60;44.00
12901;DHT22;6518;50.930;5.344;2022-08-07T13:45:02;23.60;44.40
12901;DHT22;6518;50.930;5.344;2022-08-07T13:47:34;23.70;44.40
12901;DHT22;6518;50.930;5.344;2022-08-07T13:50:05;23.60;44.40
12901;DHT22;6518;50.930;5.344;2022-08-07T13:52:37;23.70;44.30
12901;DHT22;6518;50.930;5.344;2022-08-07T13:55:09;23.70;44.20
12901;DHT22;6518;50.930;5.344;2022-08-07T13:57:38;23.70;44.20
12901;DHT22;6518;50.930;5.344;2022-08-07T14:00:07;23.80;44.50
12901;DHT22;6518;50.930;5.344;2022-08-07T14:02:35;23.80;44.40
12901;DHT22;6518;50.930;5.344;2022-08-07T14:05:07;23.80;44.00
12901;DHT22;6518;50.930;5.344;2022-08-07T14:07:39;23.80;43.90
12901;DHT22;6518;50.930;5.344;2022-08-07T14:10:08;23.80;43.40
12901;DHT22;6518;50.930;5.344;2022-08-07T14:12:39;23.80;43.70
12901;DHT22;6518;50.930;5.344;2022-08-07T14:15:18;23.70;43.20
12901;DHT22;6518;50.930;5.344;2022-08-07T14:17:46;23.90;43.50
12901;DHT22;6518;50.930;5.344;2022-08-07T14:20:19;23.90;43.70
12901;DHT22;6518;50.930;5.344;2022-08-07T14:22:51;23.90;43.90
12901;DHT22;6518;50.930;5.344;2022-08-07T14:25:26;23.90;44.10
12901;DHT22;6518;50.930;5.344;2022-08-07T14:27:54;23.90;44.10
12901;DHT22;6518;50.930;5.344;2022-08-07T14:30:23;23.90;43.80
12901;DHT22;6518;50.930;5.344;2022-08-07T14:32:54;24.00;43.80
12901;DHT22;6518;50.930;5.344;2022-08-07T14:35:25;24.00;44.00
12901;DHT22;6518;50.930;5.344;2022-08-07T14:37:56;24.10;43.80
12901;DHT22;6518;50.930;5.344;2022-08-07T14:40:25;24.10;43.30
12901;DHT22;6518;50.930;5.344;2022-08-07T14:42:54;24.10;43.30
12901;DHT22;6518;50.930;5.344;2022-08-07T14:45:24;24.10;43.40
12901;DHT22;6518;50.930;5.344;2022-08-07T14:47:53;24.10;43.60
12901;DHT22;6518;50.930;5.344;2022-08-07T14:50:23;24.10;43.50
12901;DHT22;6518;50.930;5.344;2022-08-07T14:52:52;24.10;43.20
12901;DHT22;6518;50.930;5.344;2022-08-07T14:55:21;24.10;43.20
12901;DHT22;6518;50.930;5.344;2022-08-07T14:57:50;24.10;43.30
12901;DHT22;6518;50.930;5.344;2022-08-07T15:00:17;24.10;43.40
12901;DHT22;6518;50.930;5.344;2022-08-07T15:02:46;24.20;43.30
12901;DHT22;6518;50.930;5.344;2022-08-07T15:05:14;24.20;43.30
12901;DHT22;6518;50.930;5.344;2022-08-07T15:07:44;24.30;43.50
12901;DHT22;6518;50.930;5.344;2022-08-07T15:10:16;24.30;42.90
12901;DHT22;6518;50.930;5.344;2022-08-07T15:12:44;24.30;42.80
12901;DHT22;6518;50.930;5.344;2022-08-07T15:15:15;24.40;43.00
12901;DHT22;6518;50.930;5.344;2022-08-07T15:17:55;24.40;42.90
12901;DHT22;6518;50.930;5.344;2022-08-07T15:20:25;24.40;42.90
12901;DHT22;6518;50.930;5.344;2022-08-07T15:22:55;24.50;42.80
12901;DHT22;6518;50.930;5.344;2022-08-07T15:25:29;24.40;42.50
12901;DHT22;6518;50.930;5.344;2022-08-07T15:28:00;24.40;42.30
12901;DHT22;6518;50.930;5.344;2022-08-07T15:30:27;24.40;42.50
12901;DHT22;6518;50.930;5.344;2022-08-07T15:32:57;24.30;42.50
12901;DHT22;6518;50.930;5.344;2022-08-07T15:35:26;24.30;42.70
12901;DHT22;6518;50.930;5.344;2022-08-07T15:37:57;24.40;42.80
12901;DHT22;6518;50.930;5.344;2022-08-07T15:40:27;24.50;42.60
12901;DHT22;6518;50.930;5.344;2022-08-07T15:42:55;24.50;42.40
12901;DHT22;6518;50.930;5.344;2022-08-07T15:45:40;24.60;42.40
12901;DHT22;6518;50.930;5.344;2022-08-07T15:48:15;24.70;42.30
12901;DHT22;6518;50.930;5.344;2022-08-07T15:50:47;24.70;42.60
12901;DHT22;6518;50.930;5.344;2022-08-07T15:53:22;24.70;42.60
12901;DHT22;6518;50.930;5.344;2022-08-07T15:55:53;24.70;42.80
12901;DHT22;6518;50.930;5.344;2022-08-07T15:58:27;24.60;42.80
12901;DHT22;6518;50.930;5.344;2022-08-07T16:00:55;24.70;42.80
12901;DHT22;6518;50.930;5.344;2022-08-07T16:03:24;24.70;42.70
12901;DHT22;6518;50.930;5.344;2022-08-07T16:05:51;24.70;43.30
12901;DHT22;6518;50.930;5.344;2022-08-07T16:08:22;24.70;42.80
12901;DHT22;6518;50.930;5.344;2022-08-07T16:10:54;24.70;42.70
12901;DHT22;6518;50.930;5.344;2022-08-07T16:13:57;24.70;42.60
12901;DHT22;6518;50.930;5.344;2022-08-07T16:22:43;24.80;43.20
12901;DHT22;6518;50.930;5.344;2022-08-07T16:25:31;24.90;43.30
12901;DHT22;6518;50.930;5.344;2022-08-07T16:28:11;24.90;43.30
12901;DHT22;6518;50.930;5.344;2022-08-07T16:30:53;25.00;43.30
12901;DHT22;6518;50.930;5.344;2022-08-07T16:33:25;25.10;43.20